Time;durP1;ratioP1;P1;durP2;ratioP2;P2;SDS_P1;SDS_P2;PMS_P1;PMS_P2;Temp;Humidity;BMP_temperature;BMP_pressure;BME280_temperature;BME280_humidity;BME280_pressure;Samples;Min_cycle;Max_cycle;Signal;HPM_P1;HPM_P2
2023/10/13 00:00:40;;;;;;;6.22;5.70;;;;;;;16.13;100.00;100915.78;6017784;23;20443;-73
2023/10/13 00:03:14;;;;;;;6.20;5.70;;;;;;;15.93;100.00;100882.81;6031609;23;20054;-75
2023/10/13 00:05:42;;;;;;;7.30;6.72;;;;;;;16.10;100.00;100916.03;6040645;23;20019;-74
2023/10/13 00:08:10;;;;;;;6.43;5.93;;;;;;;15.90;100.00;100893.63;5983553;23;20280;-74
2023/10/13 00:10:36;;;;;;;6.28;5.88;;;;;;;16.15;100.00;100931.56;6003847;23;20360;-74
2023/10/13 00:13:21;;;;;;;7.13;6.00;;;;;;;16.15;100.00;100929.75;6037139;23;20022;-74
2023/10/13 00:15:57;;;;;;;7.82;7.13;;;;;;;16.15;100.00;100919.16;6033767;23;20014;-74
2023/10/13 00:18:34;;;;;;;6.43;5.88;;;;;;;16.26;100.00;100928.16;6031601;23;20109;-74
2023/10/13 00:21:03;;;;;;;6.03;5.63;;;;;;;16.03;100.00;100898.03;6036267;23;20035;-73
2023/10/13 00:23:32;;;;;;;5.90;5.50;;;;;;;16.24;100.00;100920.31;6007403;23;20027;-74
2023/10/13 00:25:59;;;;;;;9.15;6.00;;;;;;;15.88;100.00;100858.50;6034457;23;20011;-74
2023/10/13 00:28:35;;;;;;;8.52;5.80;;;;;;;16.21;100.00;100920.53;6030701;23;20098;-74
2023/10/13 00:31:10;;;;;;;6.35;5.60;;;;;;;16.23;100.00;100912.47;6028664;23;20349;-74
2023/10/13 00:33:41;;;;;;;5.90;5.50;;;;;;;15.81;100.00;100841.34;6033362;23;20078;-73
2023/10/13 00:36:17;;;;;;;6.75;6.18;;;;;;;15.78;100.00;100853.97;6001472;23;20707;-75
2023/10/13 00:38:48;;;;;;;6.20;5.70;;;;;;;16.20;100.00;100916.22;6005288;23;20050;-74
2023/10/13 00:41:16;;;;;;;6.30;5.80;;;;;;;16.20;100.00;100905.63;6030495;23;20077;-75
2023/10/13 00:44:05;;;;;;;7.10;6.53;;;;;;;15.75;100.00;100831.19;5996967;23;20091;-73
2023/10/13 00:46:33;;;;;;;6.78;6.18;;;;;;;15.58;100.00;100805.09;6033945;23;20014;-74
2023/10/13 00:49:04;;;;;;;6.68;6.15;;;;;;;16.22;100.00;100911.66;6028728;23;20107;-74
2023/10/13 00:51:40;;;;;;;6.90;6.05;;;;;;;16.25;100.00;100902.63;6035078;23;20493;-75
2023/10/13 00:54:11;;;;;;;5.88;5.47;;;;;;;16.04;100.00;100866.16;6024802;23;20469;-75
2023/10/13 00:57:04;;;;;;;6.80;6.28;;;;;;;16.22;100.00;100884.31;6029319;23;20030;-74
2023/10/13 00:59:34;;;;;;;5.97;5.57;;;;;;;16.26;100.00;100889.28;6034151;23;20509;-73
2023/10/13 01:02:26;;;;;;;6.20;5.70;;;;;;;15.85;100.00;100829.59;6030194;23;20013;-74
2023/10/13 01:04:48;;;;;;;6.15;5.75;;;;;;;16.03;100.00;100845.09;6004464;23;20474;-74
2023/10/13 01:07:22;;;;;;;6.68;6.07;;;;;;;16.03;100.00;100850.38;6031523;23;20465;-74
2023/10/13 01:09:48;;;;;;;7.05;6.45;;;;;;;16.01;100.00;100847.00;5969610;23;20070;-75
2023/10/13 01:12:15;;;;;;;6.35;5.85;;;;;;;15.97;100.00;100833.16;6029594;23;20027;-74
2023/10/13 01:14:41;;;;;;;6.55;6.05;;;;;;;16.08;100.00;100854.41;6036865;23;20114;-74
2023/10/13 01:17:08;;;;;;;6.40;5.80;;;;;;;15.97;100.00;100834.94;6029250;23;20090;-74
2023/10/13 01:19:45;;;;;;;6.20;5.70;;;;;;;15.87;100.00;100798.56;5971548;23;20575;-72
2023/10/13 01:22:12;;;;;;;6.85;6.28;;;;;;;16.18;100.00;100870.47;6004201;23;20180;-74
2023/10/13 01:24:38;;;;;;;6.70;6.20;;;;;;;15.95;100.00;100825.31;5993383;23;20252;-73
2023/10/13 01:29:47;;;;;;;8.02;7.32;;;;;;;15.99;100.00;100822.44;6027336;23;20022;-72
2023/10/13 01:32:16;;;;;;;6.22;5.82;;;;;;;15.65;100.00;100756.06;5971742;23;20105;-72
2023/10/13 01:34:46;;;;;;;9.15;7.10;;;;;;;16.10;100.00;100847.19;6026390;23;20119;-73
2023/10/13 01:37:12;;;;;;;6.93;6.25;;;;;;;16.05;100.00;100822.00;5999606;23;20586;-73
2023/10/13 01:39:39;;;;;;;9.50;8.27;;;;;;;16.05;100.00;100828.13;6035027;23;20026;-72
2023/10/13 01:42:06;;;;;;;6.65;5.97;;;;;;;16.01;100.00;100805.50;6027849;23;21301;-73
2023/10/13 01:44:32;;;;;;;6.53;5.93;;;;;;;16.25;100.00;100842.56;6002954;23;20376;-74
2023/10/13 01:47:06;;;;;;;6.43;5.95;;;;;;;16.01;100.00;100800.19;6023725;23;20053;-74
2023/10/13 01:49:41;;;;;;;7.50;6.85;;;;;;;16.23;100.00;100836.53;6003404;23;20050;-73
2023/10/13 01:52:15;;;;;;;6.65;6.05;;;;;;;16.23;100.00;100830.41;6030536;23;20014;-74
2023/10/13 01:54:46;;;;;;;6.80;6.30;;;;;;;16.15;100.00;100807.97;6020672;23;20033;-73
2023/10/13 01:57:14;;;;;;;7.03;6.43;;;;;;;15.67;100.00;100730.34;5999915;23;20031;-74
2023/10/13 01:59:43;;;;;;;7.65;6.95;;;;;;;16.24;100.00;100817.03;6021712;23;20030;-73
2023/10/13 02:02:14;;;;;;;6.68;6.18;;;;;;;15.50;100.00;100697.19;6020635;23;20775;-74
2023/10/13 02:04:42;;;;;;;6.82;6.10;;;;;;;16.05;100.00;100787.59;6025198;23;20240;-73
2023/10/13 02:07:08;;;;;;;6.80;6.20;;;;;;;16.22;100.00;100813.66;6026482;23;20335;-74
2023/10/13 02:09:37;;;;;;;7.93;6.88;;;;;;;15.75;100.00;100755.34;6026249;23;20402;-73
2023/10/13 02:12:03;;;;;;;7.10;6.53;;;;;;;16.22;100.00;100803.06;5995829;23;20509;-74
2023/10/13 02:14:32;;;;;;;8.18;6.85;;;;;;;15.95;100.00;100759.13;6022743;23;20344;-74
2023/10/13 02:17:16;;;;;;;8.43;7.72;;;;;;;15.88;100.00;100746.50;6029868;23;20527;-73
2023/10/13 02:19:46;;;;;;;7.70;7.10;;;;;;;16.25;100.00;100820.53;5991595;23;20019;-73
2023/10/13 02:22:37;;;;;;;6.78;6.28;;;;;;;16.01;100.00;100767.59;6001885;23;20054;-73
2023/10/13 02:25:07;;;;;;;6.40;5.75;;;;;;;16.25;100.00;100810.78;6009445;23;20431;-73
2023/10/13 02:27:40;;;;;;;7.40;6.72;;;;;;;16.24;100.00;100801.16;6030416;23;20477;-73
2023/10/13 02:30:13;;;;;;;7.45;6.72;;;;;;;16.16;100.00;100782.34;6027273;23;20024;-73
2023/10/13 02:32:43;;;;;;;9.00;6.18;;;;;;;15.89;100.00;100732.28;6023795;23;20047;-74
2023/10/13 02:35:15;;;;;;;7.43;6.78;;;;;;;16.21;100.00;100780.19;6016547;23;20054;-74
2023/10/13 02:37:44;;;;;;;7.72;7.13;;;;;;;15.60;100.00;100681.50;6023134;23;20031;-74
2023/10/13 02:40:11;;;;;;;7.32;6.32;;;;;;;15.81;100.00;100716.13;5991894;23;20030;-73
2023/10/13 02:42:38;;;;;;;7.78;6.80;;;;;;;15.72;100.00;100710.56;6022059;23;20019;-72
2023/10/13 02:45:05;;;;;;;6.60;6.10;;;;;;;15.86;100.00;100724.59;6023239;23;20018;-74
2023/10/13 02:47:32;;;;;;;7.32;6.63;;;;;;;15.94;100.00;100724.88;6000761;23;20549;-73
2023/10/13 02:50:00;;;;;;;7.03;6.32;;;;;;;15.84;100.00;100713.28;6019806;23;20054;-74
2023/10/13 02:52:27;;;;;;;8.88;6.55;;;;;;;15.97;100.00;100724.63;5990883;23;20478;-73
2023/10/13 02:54:54;;;;;;;6.68;6.13;;;;;;;16.24;100.00;100760.59;6030034;23;20503;-74
2023/10/13 02:57:22;;;;;;;6.68;6.13;;;;;;;16.04;100.00;100722.38;6029742;23;20112;-73
2023/10/13 02:59:57;;;;;;;8.27;7.57;;;;;;;15.54;100.00;100657.19;6026640;23;20037;-74
2023/10/13 03:02:28;;;;;;;6.32;5.82;;;;;;;16.04;100.00;100747.03;5998657;23;20031;-73
2023/10/13 03:05:09;;;;;;;7.35;6.65;;;;;;;16.20;100.00;100749.38;6022754;23;20034;-74
2023/10/13 03:07:36;;;;;;;7.20;6.60;;;;;;;16.23;100.00;100745.66;6000514;23;20019;-73
2023/10/13 03:10:10;;;;;;;7.05;6.55;;;;;;;15.94;100.00;100709.81;6026708;23;20614;-74
2023/10/13 03:12:38;;;;;;;8.20;7.40;;;;;;;15.64;100.00;100648.56;6027510;23;20688;-74
2023/10/13 03:15:17;;;;;;;6.97;6.40;;;;;;;16.06;100.00;100720.47;6033242;23;20061;-74
2023/10/13 03:17:44;;;;;;;7.85;7.25;;;;;;;15.70;100.00;100648.94;6020023;23;20446;-73
2023/10/13 03:20:20;;;;;;;9.30;7.75;;;;;;;15.65;100.00;100632.56;6006086;23;20026;-73
2023/10/13 03:22:46;;;;;;;7.28;6.63;;;;;;;16.01;100.00;100691.66;5998722;23;20615;-74
2023/10/13 03:25:29;;;;;;;7.20;6.55;;;;;;;15.74;100.00;100650.44;6025962;23;20089;-74
2023/10/13 03:30:42;;;;;;;7.43;6.72;;;;;;;16.11;100.00;100710.34;5994575;23;20051;-74
2023/10/13 03:33:14;;;;;;;11.38;6.72;;;;;;;16.08;100.00;100707.94;6025685;23;20046;-74
2023/10/13 03:35:52;;;;;;;10.63;7.13;;;;;;;15.68;100.00;100631.50;6022728;23;20163;-73
2023/10/13 03:38:19;;;;;;;8.45;6.55;;;;;;;15.80;100.00;100649.13;6034376;23;20970;-74
2023/10/13 03:40:56;;;;;;;6.88;6.35;;;;;;;15.64;100.00;100617.66;6004965;23;20015;-73
2023/10/13 03:43:23;;;;;;;8.95;6.30;;;;;;;16.05;100.00;100695.75;6017783;23;20027;-74
2023/10/13 03:46:00;;;;;;;8.00;7.35;;;;;;;16.07;100.00;100688.56;6004425;23;20050;-74
2023/10/13 03:51:03;;;;;;;7.97;6.93;;;;;;;15.23;100.00;100544.88;6038908;23;20024;-74
2023/10/13 03:53:34;;;;;;;7.32;6.75;;;;;;;15.49;100.00;100592.34;6030797;23;20347;-73
2023/10/13 03:56:12;;;;;;;7.63;6.93;;;;;;;15.59;100.00;100595.16;6003481;23;20056;-74
2023/10/13 03:58:42;;;;;;;7.97;7.18;;;;;;;16.05;100.00;100679.88;6032915;23;20411;-74
2023/10/13 04:01:14;;;;;;;6.95;6.25;;;;;;;16.05;100.00;100679.88;6029328;23;20022;-74
2023/10/13 04:03:56;;;;;;;7.90;6.97;;;;;;;15.54;100.00;100611.38;6007802;23;20031;-73
2023/10/13 04:06:48;;;;;;;7.00;6.43;;;;;;;15.49;100.00;100589.69;6023042;23;20307;-75
2023/10/13 04:17:14;;;;;;;6.95;6.25;;;;;;;15.97;100.00;100657.59;6030154;23;20088;-73
2023/10/13 04:23:17;;;;;;;7.43;6.70;;;;;;;15.91;100.00;100637.75;6028957;23;20499;-73
2023/10/13 04:36:36;;;;;;;6.93;6.32;;;;;;;16.17;100.00;100646.34;6028174;23;20647;-73
2023/10/13 04:41:43;;;;;;;8.50;7.10;;;;;;;16.16;100.00;100639.38;6031471;23;20027;-74
2023/10/13 04:44:48;;;;;;;7.18;6.57;;;;;;;16.15;100.00;100635.84;5994926;23;20247;-75
2023/10/13 04:47:17;;;;;;;8.90;6.63;;;;;;;16.16;100.00;100623.50;6031848;23;20097;-73
2023/10/13 04:52:37;;;;;;;7.30;6.13;;;;;;;15.51;100.00;100511.09;6034649;23;20304;-74
2023/10/13 04:55:16;;;;;;;7.43;6.75;;;;;;;15.81;100.00;100565.31;6027489;23;20031;-74
2023/10/13 05:00:55;;;;;;;6.40;6.00;;;;;;;16.99;100.00;100579.03;6030906;23;20040;-73
2023/10/13 05:46:49;;;;;;;7.28;6.57;;;;;;;16.55;100.00;100246.00;6027072;23;20533;-74
2023/10/13 05:51:57;;;;;;;8.32;7.53;;;;;;;17.18;100.00;100345.00;5999304;23;20126;-74
2023/10/13 06:28:40;;;;;;;7.55;6.85;;;;;;;17.74;100.00;100440.13;6004997;23;20053;-74
2023/10/13 06:30:29;;;;;;;7.22;6.72;;;;;;;18.01;100.00;100417.47;6021873;23;20015;-74
2023/10/13 06:32:55;;;;;;;7.97;7.15;;;;;;;18.00;100.00;100410.47;6019384;23;20090;-73
2023/10/13 06:35:24;;;;;;;8.07;7.28;;;;;;;17.94;100.00;100396.78;5967556;23;20146;-74
2023/10/13 06:37:51;;;;;;;8.32;7.50;;;;;;;18.19;100.00;100399.91;6024608;23;20486;-73
2023/10/13 06:40:33;;;;;;;8.40;7.38;;;;;;;17.99;100.00;100361.00;6002596;23;20041;-74
2023/10/13 06:43:13;;;;;;;7.32;6.70;;;;;;;17.93;100.00;100315.44;6023630;23;20031;-75
2023/10/13 06:45:39;;;;;;;7.47;6.90;;;;;;;18.16;100.00;100322.31;5990582;23;20030;-73
2023/10/13 06:48:10;;;;;;;7.07;6.47;;;;;;;18.33;100.00;100308.34;6021171;23;20457;-74
2023/10/13 06:50:41;;;;;;;6.93;6.32;;;;;;;18.27;100.00;100295.63;5999390;23;20508;-73
2023/10/13 06:53:12;;;;;;;7.82;7.13;;;;;;;17.10;100.00;100060.19;6025939;23;20039;-73
2023/10/13 06:55:39;;;;;;;8.95;7.82;;;;;;;18.63;100.00;100271.97;5998488;23;20030;-73
2023/10/13 06:58:06;;;;;;;8.00;7.22;;;;;;;18.83;100.00;100182.41;5991488;23;20112;-74
2023/10/13 07:00:34;;;;;;;7.10;6.05;;;;;;;19.64;100.00;100248.19;6021492;23;20450;-74
2023/10/13 07:03:17;;;;;;;7.05;6.43;;;;;;;19.10;100.00;100129.22;5995671;23;20033;-73
2023/10/13 07:05:47;;;;;;;7.43;6.93;;;;;;;19.87;100.00;100193.56;6028112;23;20014;-73
2023/10/13 07:08:19;;;;;;;7.40;6.70;;;;;;;19.75;100.00;100130.06;5996350;23;20506;-74
2023/10/13 07:11:08;;;;;;;6.43;6.03;;;;;;;19.98;100.00;100173.81;6026962;23;20421;-72
2023/10/13 07:13:39;;;;;;;7.28;6.63;;;;;;;20.02;100.00;100151.22;6019881;23;20339;-73
2023/10/13 07:16:12;;;;;;;6.93;6.43;;;;;;;19.66;100.00;100087.31;6023986;23;20108;-72
2023/10/13 07:18:54;;;;;;;8.13;6.47;;;;;;;19.79;100.00;100110.94;6005533;23;20139;-73
2023/10/13 07:21:33;;;;;;;9.50;6.68;;;;;;;20.15;100.00;100113.53;6007885;23;20360;-73
2023/10/13 07:24:11;;;;;;;7.35;6.78;;;;;;;20.26;100.00;100097.25;6001810;23;20671;-73
2023/10/13 07:26:45;;;;;;;14.00;6.55;;;;;;;19.85;100.00;100017.13;6023312;23;20271;-73
2023/10/13 07:29:15;;;;;;;7.18;6.65;;;;;;;19.88;100.00;100024.78;6019046;23;20650;-73
2023/10/13 07:31:44;;;;;;;7.53;6.85;;;;;;;19.36;100.00;99920.09;6025853;23;20018;-73
2023/10/13 07:34:26;;;;;;;7.25;6.50;;;;;;;20.65;100.00;100088.84;5999570;23;20031;-73
2023/10/13 07:36:59;;;;;;;13.13;7.03;;;;;;;20.64;100.00;100038.34;6025128;23;20077;-73
2023/10/13 07:39:39;;;;;;;8.02;7.25;;;;;;;20.98;100.00;100046.25;6023850;23;20030;-72
2023/10/13 07:42:05;;;;;;;7.00;6.40;;;;;;;20.74;100.00;100003.53;5999593;23;20027;-73
2023/10/13 07:44:33;;;;;;;8.60;7.05;;;;;;;21.00;100.00;100027.44;6017700;23;20014;-73
2023/10/13 07:47:07;;;;;;;9.60;6.45;;;;;;;21.20;100.00;100042.13;5998900;23;20124;-73
2023/10/13 07:49:39;;;;;;;8.90;6.55;;;;;;;20.32;100.00;99907.44;5991156;23;20023;-74
2023/10/13 07:55:10;;;;;;;7.65;6.97;;;;;;;21.40;100.00;100009.78;6004101;23;20029;-73
2023/10/13 07:57:53;;;;;;;7.00;6.47;;;;;;;21.45;100.00;99983.47;6022066;23;20528;-71
2023/10/13 08:00:46;;;;;;;14.05;6.95;;;;;;;21.49;100.00;99974.94;6030418;23;20062;-73
2023/10/13 08:05:55;;;;;;;12.10;7.60;;;;;;;21.55;100.00;99962.75;5995505;23;20028;-72
2023/10/13 08:08:25;;;;;;;7.35;6.60;;;;;;;21.40;100.00;99959.88;6026846;23;20031;-72
2023/10/13 08:11:04;;;;;;;7.25;6.55;;;;;;;21.54;100.00;99957.56;6024310;23;20114;-72
2023/10/13 08:13:30;;;;;;;7.13;6.63;;;;;;;21.26;100.00;99925.88;6022484;23;20022;-72
2023/10/13 08:16:05;;;;;;;8.45;7.13;;;;;;;21.30;100.00;99949.38;6025453;23;20162;-73
2023/10/13 08:18:33;;;;;;;6.60;6.15;;;;;;;21.06;100.00;99933.41;6034926;23;20093;-73
2023/10/13 08:21:03;;;;;;;6.75;6.18;;;;;;;21.02;100.00;99962.22;5976259;23;20027;-72
2023/10/13 08:26:56;;;;;;;6.85;6.20;;;;;;;20.78;100.00;99896.38;6023225;23;20050;-73
2023/10/13 08:37:28;;;;;;;7.03;6.43;;;;;;;21.32;100.00;99939.38;6031907;23;20022;-74
2023/10/13 08:43:08;;;;;;;7.63;6.88;;;;;;;22.21;100.00;99971.41;5994570;23;20027;-72
2023/10/13 08:53:32;;;;;;;7.30;6.72;;;;;;;21.82;99.08;99742.50;6025123;23;20465;-72
2023/10/13 08:56:33;;;;;;;7.05;6.45;;;;;;;22.82;99.09;99887.84;5997660;23;20717;-75
2023/10/13 09:01:48;;;;;;;6.65;6.13;;;;;;;23.21;94.24;99842.19;6001624;23;20027;-76
2023/10/13 09:09:43;;;;;;;6.78;6.28;;;;;;;23.06;93.92;99827.94;6017174;23;20045;-72
2023/10/13 09:12:11;;;;;;;7.20;6.47;;;;;;;23.05;93.25;99811.06;6028945;23;20168;-73
2023/10/13 09:14:43;;;;;;;6.53;6.00;;;;;;;22.60;93.56;99761.16;6031670;23;20071;-72
2023/10/13 09:19:57;;;;;;;7.65;7.00;;;;;;;23.46;91.55;99807.94;6020087;23;20486;-73
2023/10/13 09:22:35;;;;;;;8.63;6.82;;;;;;;22.80;90.20;99654.47;6025912;23;20026;-73
2023/10/13 09:25:05;;;;;;;7.18;6.57;;;;;;;23.86;88.99;99787.00;6032331;23;20023;-72
2023/10/13 09:27:33;;;;;;;6.78;6.28;;;;;;;23.88;87.76;99755.50;6020628;23;20015;-72
2023/10/13 09:30:18;;;;;;;8.05;6.72;;;;;;;23.82;87.17;99726.78;6027871;23;20275;-72
2023/10/13 09:32:50;;;;;;;9.25;7.53;;;;;;;23.93;85.47;99692.47;5998669;23;20035;-72
2023/10/13 09:35:26;;;;;;;7.03;6.53;;;;;;;24.00;79.58;99562.03;6019696;23;20038;-73
2023/10/13 09:37:56;;;;;;;8.18;7.43;;;;;;;24.05;76.56;99520.19;5992606;23;20087;-71
2023/10/13 09:43:07;;;;;;;6.88;6.38;;;;;;;23.70;74.91;99442.47;6013842;23;20104;-72
2023/10/13 09:45:56;;;;;;;7.18;6.55;;;;;;;23.73;73.18;99411.78;5992724;23;20028;-73
2023/10/13 09:48:31;;;;;;;8.00;7.40;;;;;;;24.00;74.57;99500.41;6014209;23;20089;-72
2023/10/13 09:51:04;;;;;;;7.43;6.65;;;;;;;24.10;70.90;99423.13;5983461;23;20031;-72
2023/10/13 09:53:33;;;;;;;8.20;7.50;;;;;;;23.76;71.49;99419.44;5991071;23;20019;-73
2023/10/13 09:56:19;;;;;;;7.10;6.60;;;;;;;23.93;71.68;99457.47;5999010;23;20636;-73
2023/10/13 09:58:55;;;;;;;7.57;6.78;;;;;;;24.20;72.24;99528.16;6005596;23;20031;-72
2023/10/13 10:01:31;;;;;;;7.70;7.05;;;;;;;24.16;68.81;99382.13;5889389;23;20073;-72
2023/10/13 10:04:17;;;;;;;7.32;6.68;;;;;;;23.95;68.83;99403.69;6011740;23;20039;-72
2023/10/13 10:06:56;;;;;;;9.77;6.90;;;;;;;24.27;67.74;99408.34;6010778;23;20362;-73
2023/10/13 10:09:43;;;;;;;11.75;8.05;;;;;;;24.14;66.75;99388.72;6002371;23;20270;-73
2023/10/13 10:12:18;;;;;;;7.72;7.05;;;;;;;24.18;67.13;99459.69;6026421;23;20141;-72
2023/10/13 10:14:58;;;;;;;7.60;7.00;;;;;;;24.03;65.78;99396.28;6020482;23;20031;-71
2023/10/13 10:17:29;;;;;;;7.28;6.60;;;;;;;23.73;65.33;99320.69;6025857;23;20210;-72
2023/10/13 10:19:59;;;;;;;17.65;7.32;;;;;;;24.62;65.44;99485.25;6026372;23;20377;-73
2023/10/13 10:22:35;;;;;;;8.40;7.60;;;;;;;24.73;63.71;99468.56;6023335;23;20029;-72
2023/10/13 10:25:03;;;;;;;10.63;6.93;;;;;;;24.39;62.96;99362.19;5999407;23;20019;-71
2023/10/13 10:27:31;;;;;;;8.02;7.43;;;;;;;24.97;64.55;99514.66;5996824;23;20106;-72
2023/10/13 10:29:58;;;;;;;7.50;6.90;;;;;;;24.59;63.34;99440.88;6028308;23;20315;-72
2023/10/13 10:32:41;;;;;;;9.75;7.28;;;;;;;25.13;64.20;99561.78;6026273;23;20023;-72
2023/10/13 10:35:14;;;;;;;8.02;7.30;;;;;;;24.86;63.44;99487.38;6028648;23;20105;-73
2023/10/13 10:37:46;;;;;;;8.10;7.50;;;;;;;25.37;62.18;99496.78;6006641;23;20089;-72
2023/10/13 10:40:41;;;;;;;7.72;7.13;;;;;;;25.32;62.32;99511.84;6029166;23;20644;-72
2023/10/13 10:43:10;;;;;;;8.07;7.50;;;;;;;25.75;61.30;99493.44;6021215;23;20030;-72
2023/10/13 10:45:59;;;;;;;8.23;7.50;;;;;;;26.01;59.93;99516.81;6018261;23;20027;-73
2023/10/13 10:48:33;;;;;;;9.57;7.93;;;;;;;26.12;59.14;99504.59;6002370;23;20023;-72
2023/10/13 10:51:06;;;;;;;7.70;7.10;;;;;;;26.05;59.01;99501.09;6023658;23;20109;-72
2023/10/13 10:53:43;;;;;;;7.50;6.90;;;;;;;26.04;58.87;99520.94;6000590;23;20027;-72
2023/10/13 10:56:19;;;;;;;12.80;7.65;;;;;;;26.42;58.46;99561.41;6018767;23;20102;-72
2023/10/13 10:58:47;;;;;;;7.57;6.97;;;;;;;26.34;58.53;99569.72;6003746;23;20149;-73
2023/10/13 11:01:21;;;;;;;7.85;7.05;;;;;;;26.40;57.78;99574.25;6018803;23;20105;-73
2023/10/13 11:03:59;;;;;;;8.48;7.78;;;;;;;26.31;57.56;99542.41;6019110;23;20223;-73
2023/10/13 11:06:26;;;;;;;7.90;7.20;;;;;;;26.56;56.90;99567.56;5997665;23;20077;-72
2023/10/13 11:09:03;;;;;;;10.77;7.30;;;;;;;26.28;56.40;99546.34;6017893;23;20022;-72
2023/10/13 11:11:35;;;;;;;7.20;6.63;;;;;;;26.23;57.08;99597.25;5997279;23;20094;-72
2023/10/13 11:14:14;;;;;;;7.50;6.90;;;;;;;26.14;56.86;99590.41;5997004;23;20010;-72
2023/10/13 11:16:50;;;;;;;7.10;6.60;;;;;;;26.05;56.26;99554.84;5997811;23;20094;-71
2023/10/13 11:19:25;;;;;;;7.45;6.85;;;;;;;26.51;55.87;99614.97;6023989;23;20046;-72
2023/10/13 11:21:54;;;;;;;8.45;7.75;;;;;;;26.65;55.05;99570.88;5995483;23;20497;-72
2023/10/13 11:24:21;;;;;;;7.90;7.20;;;;;;;26.57;56.41;99644.56;6029327;23;20050;-72
2023/10/13 11:26:54;;;;;;;7.68;6.97;;;;;;;26.59;54.56;99593.25;6023045;23;20208;-71
2023/10/13 11:29:33;;;;;;;9.23;7.00;;;;;;;25.98;54.66;99540.59;6028581;23;20415;-71
2023/10/13 11:32:00;;;;;;;9.60;7.88;;;;;;;25.72;55.60;99542.25;5993589;23;20214;-75
2023/10/13 11:34:39;;;;;;;7.13;6.60;;;;;;;25.74;55.11;99532.13;5976555;23;20033;-74
2023/10/13 11:39:51;;;;;;;8.40;7.68;;;;;;;25.48;56.79;99598.25;6015278;23;20132;-74
2023/10/13 11:42:18;;;;;;;7.82;7.07;;;;;;;25.88;55.10;99614.41;5981646;23;20111;-72
2023/10/13 11:44:44;;;;;;;7.53;6.80;;;;;;;25.59;55.62;99614.78;6021147;23;20527;-72
2023/10/13 11:47:32;;;;;;;8.40;7.03;;;;;;;25.96;54.52;99616.09;6030956;23;20089;-73
2023/10/13 11:49:59;;;;;;;7.25;6.65;;;;;;;25.37;55.83;99580.03;6019022;23;20026;-72
2023/10/13 11:52:28;;;;;;;7.75;6.97;;;;;;;25.42;56.35;99642.03;5968989;23;20046;-71
2023/10/13 11:54:55;;;;;;;7.28;6.57;;;;;;;25.31;57.18;99644.47;6029337;23;20064;-71
2023/10/13 11:57:22;;;;;;;8.70;6.60;;;;;;;25.57;55.80;99624.91;6028695;23;20580;-73
2023/10/13 11:59:56;;;;;;;8.13;7.32;;;;;;;25.88;55.02;99617.09;6028106;23;20034;-72
2023/10/13 12:04:54;;;;;;;11.57;7.28;;;;;;;25.86;54.34;99599.53;6034588;23;20035;-72
2023/10/13 12:07:45;;;;;;;7.28;6.68;;;;;;;25.75;55.17;99611.69;5994083;23;20492;-73
2023/10/13 12:10:16;;;;;;;9.18;6.90;;;;;;;25.42;54.54;99576.75;6027076;23;20124;-72
2023/10/13 12:12:43;;;;;;;7.72;6.65;;;;;;;25.22;54.94;99565.97;6027321;23;20074;-72
2023/10/13 12:15:13;;;;;;;9.32;7.22;;;;;;;24.97;55.43;99538.81;6022547;23;20037;-71
2023/10/13 12:17:44;;;;;;;15.05;7.22;;;;;;;24.61;55.47;99507.72;6024829;23;20015;-73
2023/10/13 12:20:18;;;;;;;8.07;7.43;;;;;;;25.11;56.20;99617.53;6019408;23;20098;-72
2023/10/13 12:22:55;;;;;;;7.05;6.35;;;;;;;25.42;55.87;99636.66;6000848;23;20363;-73
2023/10/13 12:25:25;;;;;;;6.53;6.13;;;;;;;24.98;55.15;99562.78;6025834;23;20348;-73
2023/10/13 12:27:56;;;;;;;10.35;7.43;;;;;;;25.20;56.64;99662.81;6016087;23;20050;-72
2023/10/13 12:30:48;;;;;;;7.72;7.10;;;;;;;25.22;56.75;99652.72;6023606;23;20030;-72
2023/10/13 12:33:24;;;;;;;8.95;6.78;;;;;;;25.22;57.20;99666.16;5968701;23;20092;-72
2023/10/13 12:36:11;;;;;;;7.93;7.25;;;;;;;25.03;57.41;99637.31;6018650;23;20015;-72
2023/10/13 12:49:49;;;;;;;9.07;6.95;;;;;;;25.23;56.60;99589.09;5992635;23;20397;-72
2023/10/13 12:52:16;;;;;;;9.82;6.97;;;;;;;25.68;56.73;99652.00;6017252;23;20022;-73
2023/10/13 12:54:47;;;;;;;6.70;6.20;;;;;;;25.43;57.23;99630.25;6021116;23;20027;-72
2023/10/13 12:57:15;;;;;;;6.50;5.95;;;;;;;25.72;56.55;99640.84;6019987;23;20093;-73
2023/10/13 12:59:43;;;;;;;7.63;7.03;;;;;;;25.82;56.72;99666.28;6029538;23;20031;-72
2023/10/13 13:02:14;;;;;;;7.45;6.75;;;;;;;25.57;56.65;99604.25;6024511;23;20026;-73
2023/10/13 13:04:44;;;;;;;14.27;6.93;;;;;;;25.74;56.23;99628.88;5999930;23;20023;-73
2023/10/13 13:07:13;;;;;;;7.57;6.85;;;;;;;25.36;55.37;99558.75;6017893;23;20682;-73
2023/10/13 13:09:43;;;;;;;7.28;6.63;;;;;;;25.74;56.41;99645.00;5994491;23;20061;-72
2023/10/13 13:12:12;;;;;;;6.90;6.40;;;;;;;25.50;55.59;99589.97;6025402;23;20085;-72
2023/10/13 13:14:45;;;;;;;7.70;7.00;;;;;;;25.58;55.30;99607.75;5991763;23;20431;-73
2023/10/13 13:17:13;;;;;;;9.73;6.30;;;;;;;25.53;55.28;99567.25;6028919;23;20026;-72
2023/10/13 13:19:39;;;;;;;7.90;7.22;;;;;;;24.92;56.23;99522.47;6001385;23;20258;-73
2023/10/13 13:22:11;;;;;;;7.15;6.45;;;;;;;25.52;55.17;99581.69;5968079;23;20098;-74
2023/10/13 13:24:43;;;;;;;7.68;6.88;;;;;;;25.44;55.58;99607.75;6025988;23;20090;-71
2023/10/13 13:27:14;;;;;;;7.00;6.60;;;;;;;25.45;55.50;99595.94;5990862;23;20361;-74
2023/10/13 13:29:41;;;;;;;7.68;7.03;;;;;;;25.45;55.69;99604.00;5993652;23;20507;-72
2023/10/13 13:32:23;;;;;;;7.07;6.57;;;;;;;24.79;56.10;99539.38;6016409;23;20042;-72
2023/10/13 13:35:04;;;;;;;7.68;6.93;;;;;;;25.12;55.92;99597.69;6022822;23;20033;-72
2023/10/13 13:37:33;;;;;;;8.52;7.68;;;;;;;24.82;55.94;99547.03;5995024;23;20058;-72
2023/10/13 13:40:18;;;;;;;7.25;6.55;;;;;;;24.86;57.09;99605.47;6015925;23;20035;-72
2023/10/13 13:42:45;;;;;;;9.57;6.75;;;;;;;24.32;57.62;99562.47;6018905;23;20019;-74
2023/10/13 13:45:22;;;;;;;7.88;6.93;;;;;;;24.42;57.21;99552.19;5969003;23;20093;-72
2023/10/13 13:47:53;;;;;;;8.60;7.57;;;;;;;24.73;56.69;99570.50;6024948;23;20089;-72
2023/10/13 13:50:26;;;;;;;6.85;6.35;;;;;;;24.76;56.61;99582.72;6003527;23;20077;-72
2023/10/13 13:52:55;;;;;;;8.05;6.90;;;;;;;24.62;57.19;99596.06;5988367;23;20047;-72
2023/10/13 13:55:23;;;;;;;7.60;6.80;;;;;;;24.36;57.44;99571.75;6011631;23;20491;-72
2023/10/13 13:57:50;;;;;;;7.80;7.10;;;;;;;24.47;57.61;99595.31;6016513;23;20283;-73
2023/10/13 14:00:36;;;;;;;7.13;6.57;;;;;;;24.10;57.32;99527.69;6005305;23;20035;-71
2023/10/13 14:03:16;;;;;;;7.05;6.60;;;;;;;24.29;56.92;99540.38;6026021;23;20019;-71
2023/10/13 14:05:43;;;;;;;7.32;6.65;;;;;;;24.46;57.78;99617.81;6006491;23;20023;-73
2023/10/13 14:08:14;;;;;;;7.15;6.50;;;;;;;24.45;57.73;99581.28;6022328;23;20054;-72
2023/10/13 14:16:16;;;;;;;6.80;6.20;;;;;;;23.95;56.54;99510.88;6039355;23;20022;-73
2023/10/13 14:18:49;;;;;;;7.03;6.43;;;;;;;24.21;56.17;99539.69;6033025;23;20090;-73
2023/10/13 14:21:16;;;;;;;7.20;6.35;;;;;;;23.98;55.51;99492.56;6027604;23;20031;-73
2023/10/13 14:23:47;;;;;;;7.68;7.07;;;;;;;24.26;55.31;99507.75;6025421;23;20045;-74
2023/10/13 14:26:19;;;;;;;7.05;6.55;;;;;;;23.63;55.87;99438.94;5995687;23;20054;-73
2023/10/13 14:28:51;;;;;;;6.97;6.38;;;;;;;23.47;55.64;99426.66;6033358;23;20694;-73
2023/10/13 14:31:21;;;;;;;7.57;6.88;;;;;;;23.17;57.64;99490.22;6003928;23;20189;-73
2023/10/13 14:33:50;;;;;;;7.68;7.20;;;;;;;23.33;57.42;99499.03;6021976;23;20245;-72
2023/10/13 14:36:19;;;;;;;6.93;6.43;;;;;;;23.44;56.02;99456.50;6027033;23;20111;-75
2023/10/13 14:38:49;;;;;;;6.35;6.05;;;;;;;23.75;56.38;99532.94;5996749;23;20035;-75
2023/10/13 14:41:17;;;;;;;8.02;7.22;;;;;;;23.26;55.48;99399.94;6025443;23;20054;-71
2023/10/13 14:43:47;;;;;;;7.93;7.22;;;;;;;23.60;55.36;99462.59;5995303;23;20023;-73
2023/10/13 14:46:22;;;;;;;6.70;6.20;;;;;;;23.50;55.44;99445.00;6007360;23;20101;-74
2023/10/13 14:48:52;;;;;;;12.48;6.57;;;;;;;23.65;55.03;99462.81;5997732;23;20023;-75
2023/10/13 14:51:19;;;;;;;7.47;6.38;;;;;;;23.55;55.30;99457.81;6012915;23;20106;-73